createdAt,value
2022-10-06T00:01:51.934Z,92.86
2022-10-06T00:04:20.784Z,92.76
2022-10-06T00:06:49.392Z,92.71
2022-10-06T00:09:19.595Z,92.49
2022-10-06T00:11:48.366Z,92.72
2022-10-06T00:14:17.111Z,92.98
2022-10-06T00:16:45.861Z,92.67
2022-10-06T00:19:14.481Z,93.32
2022-10-06T00:21:43.085Z,93.34
2022-10-06T00:24:11.767Z,93.71
2022-10-06T00:26:41.914Z,94.19
2022-10-06T00:29:13.581Z,94.19
2022-10-06T00:31:43.903Z,94.81
2022-10-06T00:34:13.016Z,95.28
2022-10-06T00:36:41.750Z,94.91
2022-10-06T00:39:10.609Z,95.39
2022-10-06T00:41:42.016Z,95.14
2022-10-06T00:44:10.763Z,95.00
2022-10-06T00:46:46.462Z,95.10
2022-10-06T00:49:22.173Z,94.98
2022-10-06T00:51:58.310Z,95.89
2022-10-06T00:54:28.727Z,95.83
2022-10-06T00:56:59.555Z,95.86
2022-10-06T00:59:28.231Z,95.93
2022-10-06T01:02:05.340Z,96.18
2022-10-06T01:04:37.486Z,96.08
2022-10-06T01:07:08.008Z,96.40
2022-10-06T01:09:39.698Z,96.41
2022-10-06T01:12:10.913Z,96.20
2022-10-06T01:14:42.351Z,96.35
2022-10-06T01:17:20.837Z,96.27
2022-10-06T01:19:55.696Z,96.08
2022-10-06T01:22:35.400Z,95.93
2022-10-06T01:25:05.670Z,96.27
2022-10-06T01:27:37.753Z,96.40
2022-10-06T01:30:12.369Z,96.38
2022-10-06T01:32:41.564Z,96.37
2022-10-06T01:35:11.695Z,96.40
2022-10-06T01:37:42.975Z,96.53
2022-10-06T01:40:25.702Z,96.60
2022-10-06T01:42:54.546Z,96.44
2022-10-06T01:45:23.379Z,96.23
2022-10-06T01:47:52.958Z,96.25
2022-10-06T01:50:21.757Z,96.18
2022-10-06T01:52:52.000Z,96.09
2022-10-06T01:55:20.747Z,96.39
2022-10-06T01:57:50.198Z,96.15
2022-10-06T02:00:20.622Z,96.70
2022-10-06T02:02:50.849Z,96.49
2022-10-06T02:05:19.834Z,96.79
2022-10-06T02:07:53.472Z,96.24
2022-10-06T02:10:22.290Z,96.60
2022-10-06T02:12:53.189Z,96.27
2022-10-06T02:15:25.194Z,96.55
2022-10-06T02:17:54.705Z,96.33
2022-10-06T02:20:28.848Z,97.10
2022-10-06T02:22:59.256Z,97.05
2022-10-06T02:25:28.467Z,96.87
2022-10-06T02:27:57.629Z,97.05
2022-10-06T02:30:26.318Z,97.01
2022-10-06T02:32:55.612Z,96.84
2022-10-06T02:35:24.366Z,96.92
2022-10-06T02:37:53.439Z,97.03
2022-10-06T02:40:24.599Z,97.24
2022-10-06T02:42:54.486Z,97.17
2022-10-06T02:45:24.519Z,97.80
2022-10-06T02:47:54.971Z,97.79
2022-10-06T02:50:23.960Z,97.24
2022-10-06T02:52:52.917Z,97.66
2022-10-06T02:55:23.176Z,97.54
2022-10-06T02:57:51.870Z,97.79
2022-10-06T03:00:21.455Z,97.59
2022-10-06T03:02:50.267Z,97.58
2022-10-06T03:05:19.065Z,97.54
2022-10-06T03:07:47.892Z,97.66
2022-10-06T03:10:16.986Z,97.31
2022-10-06T03:12:47.055Z,97.52
2022-10-06T03:15:16.234Z,97.47
2022-10-06T03:17:45.017Z,97.42
2022-10-06T03:20:13.721Z,97.30
2022-10-06T03:22:43.493Z,97.59
2022-10-06T03:25:13.313Z,97.52
2022-10-06T03:27:42.048Z,97.64
2022-10-06T03:30:13.722Z,97.70
2022-10-06T03:32:42.468Z,97.71
2022-10-06T03:35:12.375Z,97.43
2022-10-06T03:37:42.629Z,97.45
2022-10-06T03:40:12.109Z,97.31
2022-10-06T03:42:40.891Z,97.25
2022-10-06T03:45:12.635Z,97.19
2022-10-06T03:47:41.457Z,97.54
2022-10-06T03:50:11.359Z,97.46
2022-10-06T03:52:40.231Z,97.55
2022-10-06T03:55:10.172Z,97.52
2022-10-06T03:57:38.902Z,97.52
2022-10-06T04:00:09.290Z,97.45
2022-10-06T04:02:42.336Z,97.28
2022-10-06T04:05:11.852Z,97.25
2022-10-06T04:07:40.666Z,97.27
2022-10-06T04:10:11.534Z,97.74
2022-10-06T04:12:40.529Z,97.46
2022-10-06T04:15:10.874Z,97.47
2022-10-06T04:17:41.155Z,97.48
2022-10-06T04:20:10.217Z,97.53
2022-10-06T04:22:38.960Z,97.57
2022-10-06T04:25:09.585Z,97.35
2022-10-06T04:27:38.514Z,97.30
2022-10-06T04:30:14.667Z,97.06
2022-10-06T04:32:46.256Z,96.88
2022-10-06T04:35:15.679Z,96.77
2022-10-06T04:37:44.938Z,96.46
2022-10-06T04:40:14.919Z,96.47
2022-10-06T04:42:45.638Z,96.75
2022-10-06T04:45:17.457Z,96.76
2022-10-06T04:47:50.934Z,97.15
2022-10-06T04:50:20.054Z,97.44
2022-10-06T04:53:06.858Z,97.62
2022-10-06T04:55:35.581Z,97.74
2022-10-06T04:58:07.072Z,98.04
2022-10-06T05:00:36.702Z,98.34
2022-10-06T05:03:07.351Z,98.49
2022-10-06T05:05:37.465Z,98.57
2022-10-06T05:08:06.490Z,98.54
2022-10-06T05:10:35.275Z,99.80
2022-10-06T05:13:06.137Z,100.00
2022-10-06T05:15:35.226Z,100.00
2022-10-06T05:18:04.263Z,100.00
2022-10-06T05:20:34.426Z,100.00
2022-10-06T05:23:07.842Z,100.00
2022-10-06T05:25:36.650Z,100.00
2022-10-06T05:28:05.478Z,100.00
2022-10-06T05:30:34.178Z,100.00
2022-10-06T05:33:03.163Z,100.00
2022-10-06T05:35:33.243Z,100.00
2022-10-06T05:38:01.967Z,100.00
2022-10-06T05:40:30.543Z,100.00
2022-10-06T05:42:59.630Z,100.00
2022-10-06T05:45:29.118Z,100.00
2022-10-06T05:47:57.785Z,100.00
2022-10-06T05:50:27.103Z,100.00
2022-10-06T05:52:58.108Z,100.00
2022-10-06T05:55:27.294Z,100.00
2022-10-06T05:57:56.577Z,100.00
2022-10-06T06:00:25.507Z,100.00
2022-10-06T06:02:54.459Z,100.00
2022-10-06T06:05:23.248Z,100.00
2022-10-06T06:07:51.917Z,100.00
2022-10-06T06:10:21.987Z,100.00
2022-10-06T06:12:50.664Z,100.00
2022-10-06T06:16:04.450Z,100.00
2022-10-06T06:18:38.434Z,100.00
2022-10-06T06:21:11.095Z,100.00
2022-10-06T06:23:44.306Z,100.00
2022-10-06T06:26:18.612Z,100.00
2022-10-06T06:28:51.877Z,100.00
2022-10-06T06:31:26.831Z,100.00
2022-10-06T06:33:57.890Z,100.00
2022-10-06T06:36:35.775Z,100.00
2022-10-06T06:39:10.467Z,100.00
2022-10-06T06:41:45.153Z,100.00
2022-10-06T06:44:36.860Z,100.00
2022-10-06T06:47:28.260Z,99.85
2022-10-06T06:50:00.306Z,99.99
2022-10-06T06:52:31.254Z,99.58
2022-10-06T06:55:00.401Z,99.15
2022-10-06T06:57:31.131Z,99.11
2022-10-06T07:00:02.827Z,98.53
2022-10-06T07:02:33.246Z,98.64
2022-10-06T07:05:02.516Z,98.38
2022-10-06T07:07:32.137Z,98.33
2022-10-06T07:10:01.180Z,98.42
2022-10-06T07:12:34.200Z,98.25
2022-10-06T07:15:20.445Z,98.58
2022-10-06T07:18:11.144Z,98.46
2022-10-06T07:20:57.511Z,98.07
2022-10-06T07:23:44.018Z,97.89
2022-10-06T07:26:17.240Z,97.94
2022-10-06T07:28:49.600Z,98.27
2022-10-06T07:31:20.182Z,98.13
2022-10-06T07:33:49.989Z,98.16
2022-10-06T07:36:20.737Z,98.16
2022-10-06T07:38:49.462Z,98.42
2022-10-06T07:41:20.064Z,98.49
2022-10-06T07:43:58.310Z,98.36
2022-10-06T07:46:29.934Z,98.83
2022-10-06T07:49:03.869Z,98.93
2022-10-06T07:51:33.524Z,99.04
2022-10-06T07:54:04.240Z,98.74
2022-10-06T07:56:40.302Z,98.98
2022-10-06T07:59:10.360Z,98.67
2022-10-06T08:01:41.045Z,98.70
2022-10-06T08:04:09.764Z,98.78
2022-10-06T08:06:38.612Z,99.17
2022-10-06T08:09:07.876Z,99.33
2022-10-06T08:11:36.594Z,99.40
2022-10-06T08:14:05.318Z,99.69
2022-10-06T08:16:35.386Z,99.73
2022-10-06T08:19:04.581Z,99.79
2022-10-06T08:21:35.628Z,100.00
2022-10-06T08:24:04.374Z,100.00
2022-10-06T08:26:33.303Z,100.00
2022-10-06T08:29:03.368Z,100.00
2022-10-06T08:31:34.811Z,100.00
2022-10-06T08:34:04.423Z,100.00
2022-10-06T08:36:35.272Z,100.00
2022-10-06T08:39:03.899Z,100.00
2022-10-06T08:41:43.297Z,100.00
2022-10-06T08:44:30.430Z,100.00
2022-10-06T08:47:05.538Z,100.00
2022-10-06T08:49:41.246Z,99.62
2022-10-06T08:52:27.587Z,98.99
2022-10-06T08:55:11.614Z,98.79
2022-10-06T08:58:03.296Z,98.87
2022-10-06T09:00:34.194Z,99.12
2022-10-06T09:03:05.683Z,99.04
2022-10-06T09:05:35.120Z,98.75
2022-10-06T09:08:35.492Z,98.76
2022-10-06T09:11:27.559Z,99.12
2022-10-06T09:14:04.500Z,99.52
2022-10-06T09:16:40.465Z,98.28
2022-10-06T09:19:20.398Z,98.37
2022-10-06T09:21:53.182Z,96.52
2022-10-06T09:24:34.686Z,92.97
2022-10-06T09:27:19.692Z,93.08
2022-10-06T09:29:50.136Z,92.33
2022-10-06T09:32:21.096Z,92.27
2022-10-06T09:34:56.389Z,92.57
2022-10-06T09:37:25.416Z,91.28
2022-10-06T09:39:55.394Z,90.57
2022-10-06T09:42:29.766Z,92.25
2022-10-06T09:45:02.348Z,91.72
2022-10-06T09:47:40.964Z,90.19
2022-10-06T09:50:25.843Z,90.39
2022-10-06T09:53:16.232Z,88.70
2022-10-06T09:55:54.920Z,85.48
2022-10-06T09:58:31.539Z,80.69
2022-10-06T10:01:03.699Z,81.99
2022-10-06T10:04:18.931Z,82.86
2022-10-06T10:06:43.548Z,83.94
2022-10-06T10:09:27.771Z,83.05
2022-10-06T10:12:27.818Z,82.02
2022-10-06T10:15:24.341Z,80.12
2022-10-06T10:17:55.804Z,81.38
2022-10-06T10:20:34.322Z,80.30
2022-10-06T10:23:19.985Z,79.92
2022-10-06T10:26:27.238Z,80.43
2022-10-06T10:29:43.049Z,81.62
2022-10-06T10:32:18.380Z,80.62
2022-10-06T10:35:04.507Z,80.06
2022-10-06T10:37:43.147Z,79.22
2022-10-06T10:40:28.470Z,76.48
2022-10-06T10:43:17.653Z,73.62
2022-10-06T10:45:52.592Z,75.08
2022-10-06T10:48:31.551Z,76.56
2022-10-06T10:51:08.427Z,72.58
2022-10-06T10:53:48.065Z,71.10
2022-10-06T10:56:23.404Z,72.60
2022-10-06T10:58:57.550Z,71.55
2022-10-06T11:01:35.232Z,68.31
2022-10-06T11:04:05.142Z,70.18
2022-10-06T11:07:23.669Z,66.69
2022-10-06T11:10:04.717Z,68.53
2022-10-06T11:13:04.644Z,71.25
2022-10-06T11:15:56.693Z,72.26
2022-10-06T11:18:48.240Z,71.17
2022-10-06T11:21:25.304Z,71.88
2022-10-06T11:24:01.807Z,73.62
2022-10-06T11:27:15.145Z,73.16
2022-10-06T11:30:02.006Z,72.57
2022-10-06T11:32:51.438Z,73.64
2022-10-06T11:35:24.080Z,73.82
2022-10-06T11:38:01.195Z,74.38
2022-10-06T11:40:53.525Z,74.18
2022-10-06T11:43:35.576Z,69.72
2022-10-06T11:46:32.109Z,67.35
2022-10-06T11:49:54.904Z,66.79
2022-10-06T11:52:54.453Z,69.39
2022-10-06T11:55:26.608Z,71.16
2022-10-06T12:01:03.296Z,71.79
2022-10-06T12:03:48.563Z,74.58
2022-10-06T12:07:06.986Z,75.16
2022-10-06T12:09:53.701Z,74.04
2022-10-06T12:13:05.286Z,73.01
2022-10-06T12:19:21.464Z,68.35
2022-10-06T12:22:02.144Z,69.91
2022-10-06T12:24:43.895Z,71.30
2022-10-06T12:27:34.530Z,72.45
2022-10-06T12:30:21.298Z,69.47
2022-10-06T12:32:58.379Z,70.79
2022-10-06T12:35:33.363Z,68.06
2022-10-06T12:38:06.358Z,64.99
2022-10-06T12:40:55.964Z,67.78
2022-10-06T12:43:35.177Z,68.63
2022-10-06T12:46:16.390Z,72.73
2022-10-06T12:49:04.031Z,73.80
2022-10-06T12:51:41.103Z,73.53
2022-10-06T12:54:20.558Z,72.37
2022-10-06T12:57:02.116Z,66.56
2022-10-06T12:59:33.990Z,68.20
2022-10-06T13:02:09.874Z,70.12
2022-10-06T13:04:43.179Z,71.12
2022-10-06T13:07:20.693Z,69.58
2022-10-06T13:10:27.537Z,70.50
2022-10-06T13:12:58.190Z,71.40
2022-10-06T13:15:35.101Z,71.80
2022-10-06T13:18:16.169Z,72.13
2022-10-06T13:20:54.049Z,72.65
2022-10-06T13:23:43.623Z,73.71
2022-10-06T13:26:24.890Z,73.45
2022-10-06T13:29:22.548Z,73.32
2022-10-06T13:32:08.076Z,73.18
2022-10-06T13:34:43.360Z,73.00
2022-10-06T13:37:23.477Z,72.79
2022-10-06T13:39:57.720Z,72.61
2022-10-06T13:42:49.418Z,73.17
2022-10-06T13:45:26.403Z,72.52
2022-10-06T13:48:17.130Z,73.46
2022-10-06T13:53:31.629Z,73.19
2022-10-06T13:56:36.322Z,73.54
2022-10-06T13:59:38.622Z,74.34
2022-10-06T14:02:26.881Z,74.28
2022-10-06T14:05:24.685Z,74.89
2022-10-06T14:08:05.762Z,74.14
2022-10-06T14:11:10.165Z,74.57
2022-10-06T14:13:53.361Z,74.67
2022-10-06T14:16:29.025Z,74.43
2022-10-06T14:19:02.125Z,73.71
2022-10-06T14:21:40.208Z,74.47
2022-10-06T14:24:26.385Z,72.78
2022-10-06T14:27:09.071Z,69.13
2022-10-06T14:29:41.412Z,71.77
2022-10-06T14:32:15.470Z,71.64
2022-10-06T14:34:47.149Z,72.92
2022-10-06T14:37:18.253Z,73.34
2022-10-06T14:40:11.551Z,73.74
2022-10-06T14:43:12.673Z,73.93
2022-10-06T14:45:50.306Z,74.70
2022-10-06T14:48:20.239Z,75.29
2022-10-06T14:50:49.587Z,75.10
2022-10-06T14:53:19.022Z,75.68
2022-10-06T14:55:50.026Z,75.86
2022-10-06T14:58:21.025Z,76.14
2022-10-06T15:00:53.068Z,76.57
2022-10-06T15:03:21.940Z,76.53
2022-10-06T15:06:08.091Z,76.90
2022-10-06T15:08:37.356Z,76.85
2022-10-06T15:11:06.997Z,77.00
2022-10-06T15:13:36.984Z,77.14
2022-10-06T15:16:08.169Z,77.33
2022-10-06T15:18:40.694Z,77.62
2022-10-06T15:21:13.153Z,77.84
2022-10-06T15:23:42.072Z,78.27
2022-10-06T15:26:30.180Z,78.99
2022-10-06T15:29:01.923Z,79.78
2022-10-06T15:31:35.481Z,80.20
2022-10-06T15:34:07.535Z,80.65
2022-10-06T15:36:38.710Z,81.13
2022-10-06T15:39:09.874Z,80.51
2022-10-06T15:42:32.049Z,80.15
2022-10-06T15:45:05.099Z,80.40
2022-10-06T15:47:38.706Z,80.48
2022-10-06T15:50:08.630Z,81.50
2022-10-06T15:57:05.742Z,81.72
2022-10-06T15:59:35.350Z,81.56
2022-10-06T16:02:16.315Z,81.52
2022-10-06T16:04:57.521Z,81.19
2022-10-06T16:07:26.634Z,80.91
2022-10-06T16:09:55.611Z,81.03
2022-10-06T16:12:28.712Z,81.50
2022-10-06T16:14:57.769Z,81.97
2022-10-06T16:17:27.254Z,82.12
2022-10-06T16:20:05.722Z,82.30
2022-10-06T16:22:35.925Z,82.55
2022-10-06T16:25:05.828Z,82.00
2022-10-06T16:27:35.520Z,81.68
2022-10-06T16:30:04.588Z,81.80
2022-10-06T16:32:52.783Z,82.09
2022-10-06T16:35:37.553Z,81.97
2022-10-06T16:38:52.981Z,82.45
2022-10-06T16:46:37.557Z,81.79
2022-10-06T16:49:30.506Z,81.58
2022-10-06T16:56:42.197Z,82.37
2022-10-06T17:04:53.316Z,82.47
2022-10-06T17:07:22.573Z,81.87
2022-10-06T17:10:18.444Z,81.33
2022-10-06T17:17:08.675Z,81.71
2022-10-06T17:19:37.657Z,82.31
2022-10-06T17:22:06.703Z,82.49
2022-10-06T17:24:39.030Z,81.94
2022-10-06T17:27:08.262Z,81.37
2022-10-06T17:29:41.382Z,80.67
2022-10-06T17:32:47.147Z,80.77
2022-10-06T17:35:22.110Z,81.81
2022-10-06T17:38:28.654Z,82.13
2022-10-06T17:41:09.822Z,82.44
2022-10-06T17:43:47.081Z,81.63
2022-10-06T17:46:21.081Z,80.75
2022-10-06T17:49:04.923Z,80.41
2022-10-06T17:52:13.033Z,81.26
2022-10-06T17:54:45.114Z,81.56
2022-10-06T17:57:14.277Z,81.63
2022-10-06T17:59:48.438Z,80.96
2022-10-06T18:04:01.272Z,80.00
2022-10-06T18:06:56.735Z,80.80
2022-10-06T18:11:16.325Z,80.72
2022-10-06T18:18:08.008Z,81.05
2022-10-06T18:37:08.984Z,79.41
2022-10-06T18:39:41.087Z,79.99
2022-10-06T18:42:11.987Z,80.12
2022-10-06T18:45:04.201Z,80.14
2022-10-06T18:47:50.560Z,79.84
2022-10-06T18:50:20.916Z,79.97
2022-10-06T18:52:51.214Z,80.57
2022-10-06T18:55:20.803Z,80.78
2022-10-06T18:57:50.482Z,80.75
2022-10-06T19:00:19.923Z,79.96
2022-10-06T19:02:52.538Z,79.58
2022-10-06T19:05:23.499Z,79.40
2022-10-06T19:08:00.202Z,80.03
2022-10-06T19:10:29.904Z,79.73
2022-10-06T19:12:59.586Z,79.65
2022-10-06T19:15:28.959Z,79.37
2022-10-06T19:18:03.820Z,79.09
2022-10-06T19:20:49.248Z,80.26
2022-10-06T19:23:19.371Z,80.52
2022-10-06T19:26:00.698Z,80.09
2022-10-06T19:28:31.753Z,80.49
2022-10-06T19:31:03.178Z,80.59
2022-10-06T19:33:33.971Z,79.67
2022-10-06T19:36:04.354Z,79.88
2022-10-06T19:38:37.465Z,80.09
2022-10-06T19:41:54.784Z,80.41
2022-10-06T19:44:48.620Z,80.32
2022-10-06T19:47:18.251Z,80.68
2022-10-06T19:49:48.710Z,80.51
2022-10-06T19:53:13.339Z,81.16
2022-10-06T19:55:42.363Z,80.88
2022-10-06T19:58:11.308Z,81.04
2022-10-06T20:00:43.832Z,81.20
2022-10-06T20:03:15.948Z,80.58
2022-10-06T20:05:44.843Z,80.75
2022-10-06T20:08:20.288Z,80.89
2022-10-06T20:10:52.098Z,79.98
2022-10-06T20:17:49.817Z,79.96
2022-10-06T20:20:20.672Z,80.73
2022-10-06T20:22:50.105Z,80.94
2022-10-06T20:25:21.691Z,81.34
2022-10-06T20:27:50.627Z,80.54
2022-10-06T20:30:20.597Z,79.83
2022-10-06T20:32:49.710Z,80.56
2022-10-06T20:35:19.112Z,80.94
2022-10-06T20:37:48.078Z,80.10
2022-10-06T20:40:34.614Z,79.38
2022-10-06T20:43:07.907Z,79.78
2022-10-06T20:45:39.053Z,80.04
2022-10-06T20:48:08.334Z,80.47
2022-10-06T20:50:37.225Z,80.65
2022-10-06T20:53:06.557Z,79.99
2022-10-06T20:55:35.390Z,80.04
2022-10-06T20:58:05.550Z,79.73
2022-10-06T21:00:34.947Z,79.97
2022-10-06T21:03:03.717Z,79.86
2022-10-06T21:05:32.990Z,80.04
2022-10-06T21:08:02.303Z,80.42
2022-10-06T21:10:31.217Z,80.59
2022-10-06T21:13:02.628Z,80.65
2022-10-06T21:15:33.438Z,80.60
2022-10-06T21:18:03.718Z,80.02
2022-10-06T21:20:32.688Z,79.58
2022-10-06T21:23:01.544Z,80.06
2022-10-06T21:25:30.479Z,80.78
2022-10-06T21:27:59.371Z,80.00
2022-10-06T21:30:28.227Z,80.04
2022-10-06T21:32:59.549Z,80.16
2022-10-06T21:35:28.492Z,80.12
2022-10-06T21:37:57.202Z,80.20
2022-10-06T21:40:26.058Z,80.68
2022-10-06T21:42:55.154Z,80.59
2022-10-06T21:45:24.971Z,80.11
2022-10-06T21:47:54.714Z,81.08
2022-10-06T21:50:25.128Z,79.82
2022-10-06T21:52:53.971Z,79.86
2022-10-06T21:55:22.832Z,80.35
2022-10-06T21:57:51.641Z,80.14
2022-10-06T22:00:20.625Z,79.88
2022-10-06T22:02:49.684Z,79.89
2022-10-06T22:05:24.904Z,80.57
2022-10-06T22:08:32.635Z,81.02
2022-10-06T22:11:07.110Z,80.48
2022-10-06T22:13:36.210Z,79.56
2022-10-06T22:16:05.861Z,79.30
2022-10-06T22:18:36.091Z,79.72
2022-10-06T22:21:15.791Z,80.20
2022-10-06T22:23:47.226Z,79.36
2022-10-06T22:26:17.516Z,78.92
2022-10-06T22:28:49.236Z,79.20
2022-10-06T22:32:46.089Z,79.23
2022-10-06T22:35:15.069Z,79.06
2022-10-06T22:37:45.866Z,79.02
2022-10-06T22:40:15.253Z,78.79
2022-10-06T22:42:44.096Z,79.19
2022-10-06T22:45:13.033Z,78.70
2022-10-06T22:47:42.130Z,79.36
2022-10-06T22:50:11.478Z,79.66
2022-10-06T22:52:40.356Z,79.69
2022-10-06T22:55:11.062Z,80.47
2022-10-06T22:57:39.897Z,80.04
2022-10-06T23:00:10.578Z,80.67
2022-10-06T23:02:39.286Z,79.65
2022-10-06T23:05:08.757Z,78.86
2022-10-06T23:07:37.584Z,79.82
2022-10-06T23:10:07.361Z,79.34
2022-10-06T23:12:37.545Z,80.36
2022-10-06T23:15:11.443Z,80.80
2022-10-06T23:17:40.295Z,80.14
2022-10-06T23:20:10.507Z,79.76
2022-10-06T23:22:39.530Z,80.63
2022-10-06T23:25:10.155Z,80.28
2022-10-06T23:27:40.750Z,80.41
2022-10-06T23:30:11.698Z,81.03
2022-10-06T23:32:40.870Z,80.55
2022-10-06T23:35:10.590Z,80.15
2022-10-06T23:37:40.045Z,79.53
2022-10-06T23:40:10.294Z,79.95
2022-10-06T23:42:40.483Z,80.10
2022-10-06T23:45:10.622Z,80.17
2022-10-06T23:47:39.412Z,80.04
2022-10-06T23:50:09.241Z,79.41
2022-10-06T23:52:38.438Z,79.74
2022-10-06T23:55:08.264Z,79.72
2022-10-06T23:57:40.451Z,79.95
